createdAt,value
2022-11-07T00:00:51.788Z,96.30
2022-11-07T00:01:50.298Z,96.40
2022-11-07T00:02:46.093Z,96.30
2022-11-07T00:03:49.899Z,96.56
2022-11-07T00:04:49.782Z,96.45
2022-11-07T00:05:49.210Z,96.66
2022-11-07T00:06:58.475Z,96.77
2022-11-07T00:07:55.641Z,97.17
2022-11-07T00:08:56.080Z,96.87
2022-11-07T00:09:48.455Z,96.35
2022-11-07T00:11:12.692Z,96.66
2022-11-07T00:11:50.493Z,95.74
2022-11-07T00:13:08.699Z,96.04
2022-11-07T00:13:45.510Z,96.87
2022-11-07T00:14:44.522Z,95.94
2022-11-07T00:15:52.145Z,95.23
2022-11-07T00:16:50.188Z,95.43
2022-11-07T00:17:50.625Z,95.74
2022-11-07T00:18:50.299Z,95.74
2022-11-07T00:19:47.724Z,96.25
2022-11-07T00:20:46.523Z,95.74
2022-11-07T00:21:48.346Z,95.49
2022-11-07T00:22:45.829Z,96.00
2022-11-07T00:23:48.744Z,95.84
2022-11-07T00:25:58.278Z,95.69
2022-11-07T00:27:01.005Z,95.69
2022-11-07T00:28:02.557Z,96.10
2022-11-07T00:29:02.809Z,95.59
2022-11-07T00:30:02.482Z,96.00
2022-11-07T00:30:58.591Z,95.69
2022-11-07T00:32:03.071Z,96.10
2022-11-07T00:33:00.333Z,95.69
2022-11-07T00:34:04.033Z,96.10
2022-11-07T00:34:57.626Z,96.41
2022-11-07T00:35:59.134Z,96.62
2022-11-07T00:36:57.747Z,96.51
2022-11-07T00:38:03.485Z,96.41
2022-11-07T00:39:01.495Z,96.31
2022-11-07T00:40:21.270Z,96.20
2022-11-07T00:41:08.237Z,96.31
2022-11-07T00:42:02.997Z,95.69
2022-11-07T00:43:04.286Z,96.31
2022-11-07T00:44:15.938Z,96.31
2022-11-07T00:45:04.567Z,96.92
2022-11-07T00:46:03.233Z,96.51
2022-11-07T00:47:00.685Z,96.20
2022-11-07T00:48:00.839Z,96.00
2022-11-07T00:49:01.625Z,96.31
2022-11-07T00:49:59.322Z,96.00
2022-11-07T00:50:58.777Z,96.20
2022-11-07T00:52:01.471Z,96.62
2022-11-07T00:53:00.343Z,97.03
2022-11-07T00:54:40.147Z,95.59
2022-11-07T00:55:05.083Z,96.20
2022-11-07T00:56:02.021Z,96.62
2022-11-07T00:56:59.859Z,96.72
2022-11-07T00:57:59.638Z,96.51
2022-11-07T00:59:00.764Z,96.31
2022-11-07T01:00:23.820Z,96.10
2022-11-07T01:01:00.560Z,96.20
2022-11-07T01:04:07.664Z,96.10
2022-11-07T01:04:34.095Z,96.62
2022-11-07T01:05:55.951Z,96.82
2022-11-07T01:06:42.526Z,95.59
2022-11-07T01:07:33.321Z,95.34
2022-11-07T01:08:38.488Z,95.34
2022-11-07T01:09:43.744Z,94.93
2022-11-07T01:10:31.564Z,95.24
2022-11-07T01:11:31.058Z,94.93
2022-11-07T01:12:32.885Z,95.14
2022-11-07T01:13:34.093Z,95.24
2022-11-07T01:14:31.992Z,95.34
2022-11-07T01:15:30.330Z,95.65
2022-11-07T01:16:33.453Z,95.24
2022-11-07T01:17:35.712Z,95.44
2022-11-07T01:18:39.928Z,95.09
2022-11-07T01:19:38.979Z,94.99
2022-11-07T01:21:16.276Z,94.48
2022-11-07T01:21:38.386Z,94.58
2022-11-07T01:22:34.306Z,95.61
2022-11-07T01:23:37.656Z,95.40
2022-11-07T01:24:37.438Z,94.78
2022-11-07T01:25:33.847Z,94.27
2022-11-07T01:26:31.923Z,94.58
2022-11-07T01:27:32.036Z,93.66
2022-11-07T01:28:31.745Z,94.33
2022-11-07T01:29:33.906Z,94.64
2022-11-07T01:30:31.779Z,94.02
2022-11-07T01:33:07.230Z,93.41
2022-11-07T01:34:02.871Z,93.92
2022-11-07T01:35:04.541Z,94.23
2022-11-07T01:36:07.578Z,94.12
2022-11-07T01:37:07.727Z,94.02
2022-11-07T01:38:29.235Z,93.41
2022-11-07T01:39:04.521Z,93.62
2022-11-07T01:40:06.444Z,93.41
2022-11-07T01:41:07.427Z,93.51
2022-11-07T01:42:05.437Z,93.82
2022-11-07T01:43:07.148Z,94.02
2022-11-07T01:46:02.641Z,93.92
2022-11-07T01:46:42.153Z,94.02
2022-11-07T01:47:46.443Z,94.02
2022-11-07T01:48:42.518Z,93.82
2022-11-07T01:49:43.978Z,93.82
2022-11-07T01:50:44.146Z,94.12
2022-11-07T01:51:47.980Z,94.43
2022-11-07T01:52:45.552Z,94.12
2022-11-07T01:53:43.351Z,94.23
2022-11-07T01:54:46.434Z,93.92
2022-11-07T01:56:08.115Z,94.64
2022-11-07T01:56:43.309Z,93.92
2022-11-07T01:57:45.328Z,94.43
2022-11-07T01:58:46.962Z,94.12
2022-11-07T01:59:45.480Z,94.54
2022-11-07T02:00:43.918Z,94.23
2022-11-07T02:01:43.254Z,94.02
2022-11-07T02:03:03.926Z,93.92
2022-11-07T02:03:44.165Z,93.62
2022-11-07T02:04:44.145Z,93.62
2022-11-07T02:05:45.491Z,93.82
2022-11-07T02:06:46.011Z,93.92
2022-11-07T02:07:44.863Z,94.02
2022-11-07T02:08:43.201Z,94.12
2022-11-07T02:09:51.988Z,94.27
2022-11-07T02:10:45.821Z,94.17
2022-11-07T02:11:40.654Z,94.68
2022-11-07T02:14:19.834Z,95.09
2022-11-07T02:17:57.771Z,95.29
2022-11-07T02:18:33.803Z,95.40
2022-11-07T02:19:30.344Z,95.29
2022-11-07T02:20:32.245Z,94.89
2022-11-07T02:21:31.861Z,94.68
2022-11-07T02:22:31.905Z,94.89
2022-11-07T02:23:34.795Z,95.09
2022-11-07T02:24:31.919Z,95.29
2022-11-07T02:25:31.671Z,95.20
2022-11-07T02:27:13.962Z,94.89
2022-11-07T02:27:33.131Z,95.40
2022-11-07T02:30:02.469Z,94.84
2022-11-07T02:30:56.751Z,94.23
2022-11-07T02:31:59.002Z,94.64
2022-11-07T02:32:59.384Z,94.43
2022-11-07T02:33:54.535Z,94.33
2022-11-07T02:34:57.181Z,94.02
2022-11-07T02:37:48.763Z,94.54
2022-11-07T02:38:36.233Z,94.58
2022-11-07T02:39:34.851Z,94.48
2022-11-07T02:40:31.580Z,94.78
2022-11-07T02:41:33.894Z,94.89
2022-11-07T02:42:35.439Z,94.74
2022-11-07T02:43:33.103Z,94.33
2022-11-07T02:44:35.358Z,94.74
2022-11-07T02:45:34.956Z,94.33
2022-11-07T02:50:29.012Z,94.43
2022-11-07T02:50:44.289Z,94.43
2022-11-07T02:51:46.420Z,94.43
2022-11-07T02:52:45.396Z,94.64
2022-11-07T02:53:44.758Z,94.74
2022-11-07T02:57:02.886Z,94.70
2022-11-07T02:57:52.952Z,94.29
2022-11-07T02:59:01.993Z,93.98
2022-11-07T02:59:55.412Z,93.77
2022-11-07T03:00:57.832Z,93.98
2022-11-07T03:01:56.719Z,94.18
2022-11-07T03:03:00.305Z,94.18
2022-11-07T03:03:55.162Z,94.49
2022-11-07T03:04:58.537Z,94.39
2022-11-07T03:05:58.230Z,94.70
2022-11-07T03:07:05.870Z,94.90
2022-11-07T03:08:09.964Z,94.70
2022-11-07T03:09:01.985Z,94.70
2022-11-07T03:09:55.601Z,94.59
2022-11-07T03:10:56.733Z,94.70
2022-11-07T03:11:56.364Z,94.70
2022-11-07T03:12:54.929Z,94.80
2022-11-07T03:14:02.693Z,95.10
2022-11-07T03:19:21.238Z,94.65
2022-11-07T03:20:04.773Z,94.45
2022-11-07T03:21:05.304Z,94.45
2022-11-07T03:22:04.648Z,94.55
2022-11-07T03:23:02.978Z,94.14
2022-11-07T03:24:08.258Z,94.75
2022-11-07T03:25:04.027Z,94.04
2022-11-07T03:26:03.525Z,94.24
2022-11-07T03:27:03.314Z,94.04
2022-11-07T03:30:03.824Z,94.24
2022-11-07T03:31:02.099Z,94.04
2022-11-07T03:32:01.857Z,93.99
2022-11-07T03:33:03.553Z,94.30
2022-11-07T03:34:02.456Z,93.79
2022-11-07T03:35:03.140Z,94.10
2022-11-07T03:36:02.053Z,93.79
2022-11-07T03:37:02.138Z,93.89
2022-11-07T03:38:13.009Z,93.79
2022-11-07T03:39:03.412Z,93.38
2022-11-07T03:40:04.097Z,93.28
2022-11-07T03:40:58.402Z,93.59
2022-11-07T03:42:02.313Z,93.48
2022-11-07T03:43:00.336Z,93.38
2022-11-07T03:44:02.978Z,93.18
2022-11-07T03:44:59.474Z,93.48
2022-11-07T03:46:01.056Z,93.13
2022-11-07T03:47:03.687Z,93.28
2022-11-07T03:48:02.593Z,93.38
2022-11-07T03:50:18.172Z,93.13
2022-11-07T03:51:23.393Z,93.33
2022-11-07T03:52:16.242Z,93.38
2022-11-07T03:53:24.854Z,93.38
2022-11-07T03:54:14.241Z,93.59
2022-11-07T03:55:19.747Z,93.59
2022-11-07T03:56:18.839Z,93.89
2022-11-07T03:57:16.527Z,94.40
2022-11-07T03:58:17.234Z,94.75
2022-11-07T03:59:16.031Z,94.51
2022-11-07T04:00:15.304Z,94.20
2022-11-07T04:01:16.025Z,94.10
2022-11-07T04:02:35.162Z,94.20
2022-11-07T04:03:17.374Z,93.79
2022-11-07T04:04:21.045Z,93.99
2022-11-07T04:05:21.239Z,93.65
2022-11-07T04:06:20.279Z,93.24
2022-11-07T04:07:16.905Z,93.13
2022-11-07T04:12:24.059Z,93.09
2022-11-07T04:13:21.070Z,92.58
2022-11-07T04:14:20.328Z,92.99
2022-11-07T04:15:21.558Z,92.99
2022-11-07T04:16:23.532Z,93.09
2022-11-07T04:17:23.068Z,93.29
2022-11-07T04:18:20.378Z,93.19
2022-11-07T04:19:22.054Z,93.19
2022-11-07T04:20:23.024Z,93.40
2022-11-07T04:21:44.725Z,92.78
2022-11-07T04:22:28.751Z,92.88
2022-11-07T04:23:26.183Z,92.99
2022-11-07T04:24:18.263Z,93.09
2022-11-07T04:25:27.412Z,92.78
2022-11-07T04:26:22.858Z,92.47
2022-11-07T04:27:20.829Z,92.37
2022-11-07T04:28:23.235Z,92.68
2022-11-07T04:29:24.537Z,92.58
2022-11-07T04:30:23.956Z,92.58
2022-11-07T04:31:24.392Z,92.99
2022-11-07T04:32:24.929Z,92.99
2022-11-07T04:33:21.167Z,92.68
2022-11-07T04:34:23.927Z,92.78
2022-11-07T04:35:27.680Z,92.88
2022-11-07T04:36:22.575Z,93.09
2022-11-07T04:37:19.169Z,93.40
2022-11-07T04:38:18.770Z,93.60
2022-11-07T04:39:25.112Z,92.78
2022-11-07T04:40:24.817Z,92.33
2022-11-07T04:41:28.592Z,92.23
2022-11-07T04:42:22.513Z,92.54
2022-11-07T04:43:23.824Z,92.64
2022-11-07T04:44:23.851Z,92.94
2022-11-07T04:46:58.049Z,93.25
2022-11-07T04:47:41.013Z,93.15
2022-11-07T04:48:40.844Z,92.84
2022-11-07T04:49:39.470Z,93.09
2022-11-07T04:50:39.101Z,93.09
2022-11-07T04:51:39.034Z,93.29
2022-11-07T04:52:41.632Z,93.09
2022-11-07T04:53:45.379Z,93.19
2022-11-07T04:54:41.163Z,93.50
2022-11-07T04:55:41.908Z,93.60
2022-11-07T04:57:30.825Z,93.85
2022-11-07T04:58:27.068Z,94.46
2022-11-07T04:59:24.018Z,94.26
2022-11-07T05:00:30.649Z,94.36
2022-11-07T05:01:22.450Z,94.36
2022-11-07T05:02:25.267Z,93.85
2022-11-07T05:03:30.509Z,93.95
2022-11-07T05:04:36.542Z,94.15
2022-11-07T05:05:22.646Z,94.15
2022-11-07T05:06:20.265Z,94.06
2022-11-07T05:07:22.749Z,94.15
2022-11-07T05:08:28.682Z,94.36
2022-11-07T05:09:25.610Z,94.46
2022-11-07T05:10:25.745Z,94.46
2022-11-07T05:11:25.915Z,94.15
2022-11-07T05:12:25.662Z,94.36
2022-11-07T05:13:22.997Z,94.26
2022-11-07T05:14:24.984Z,94.36
2022-11-07T05:15:22.233Z,94.36
2022-11-07T05:16:25.577Z,94.26
2022-11-07T05:19:25.222Z,94.15
2022-11-07T05:20:27.788Z,94.71
2022-11-07T05:21:22.188Z,94.92
2022-11-07T05:26:23.052Z,95.73
2022-11-07T05:27:01.028Z,95.88
2022-11-07T05:27:56.774Z,96.29
2022-11-07T05:28:58.449Z,96.39
2022-11-07T05:29:54.755Z,96.29
2022-11-07T05:30:55.808Z,96.39
2022-11-07T05:31:55.217Z,96.70
2022-11-07T05:32:54.838Z,96.70
2022-11-07T05:33:57.645Z,96.80
2022-11-07T05:34:56.466Z,96.70
2022-11-07T05:35:52.738Z,96.70
2022-11-07T05:36:54.134Z,96.70
2022-11-07T05:37:52.153Z,96.80
2022-11-07T05:39:10.061Z,96.49
2022-11-07T05:39:57.139Z,96.34
2022-11-07T05:42:41.148Z,95.73
2022-11-07T05:43:40.166Z,95.94
2022-11-07T05:44:34.539Z,95.63
2022-11-07T05:45:35.626Z,95.43
2022-11-07T05:46:46.706Z,95.18
2022-11-07T05:48:08.824Z,95.18
2022-11-07T05:48:38.169Z,94.97
2022-11-07T05:49:33.905Z,94.87
2022-11-07T05:50:31.779Z,94.77
2022-11-07T05:51:31.483Z,94.46
2022-11-07T05:52:31.182Z,94.46
2022-11-07T05:53:38.005Z,94.56
2022-11-07T05:54:34.635Z,94.62
2022-11-07T05:55:37.148Z,94.87
2022-11-07T05:56:33.577Z,94.77
2022-11-07T05:57:35.178Z,94.97
2022-11-07T05:58:37.103Z,95.18
2022-11-07T05:59:38.412Z,95.18
2022-11-07T06:00:38.931Z,94.67
2022-11-07T06:01:33.994Z,94.87
2022-11-07T06:02:33.133Z,94.52
2022-11-07T06:03:37.083Z,94.73
2022-11-07T06:04:35.186Z,94.62
2022-11-07T06:05:35.279Z,94.42
2022-11-07T06:06:36.982Z,94.62
2022-11-07T06:08:32.339Z,94.62
2022-11-07T06:08:43.585Z,94.42
2022-11-07T06:09:39.796Z,94.42
2022-11-07T06:10:37.085Z,94.62
2022-11-07T06:11:36.921Z,94.62
2022-11-07T06:14:16.807Z,94.87
2022-11-07T06:15:13.897Z,94.87
2022-11-07T06:16:14.495Z,94.87
2022-11-07T06:17:15.258Z,95.22
2022-11-07T06:18:14.248Z,95.43
2022-11-07T06:19:17.083Z,95.63
2022-11-07T06:20:14.143Z,96.08
2022-11-07T06:21:12.627Z,96.19
2022-11-07T06:22:14.669Z,96.49
2022-11-07T06:23:16.330Z,96.91
2022-11-07T06:24:15.817Z,96.80
2022-11-07T06:25:15.939Z,96.91
2022-11-07T06:26:15.818Z,96.91
2022-11-07T06:27:16.235Z,96.91
2022-11-07T06:30:23.733Z,97.25
2022-11-07T06:30:40.652Z,97.66
2022-11-07T06:31:36.003Z,97.97
2022-11-07T06:32:42.673Z,97.97
2022-11-07T06:33:39.282Z,98.18
2022-11-07T06:34:58.290Z,98.49
2022-11-07T06:35:38.172Z,98.18
2022-11-07T06:36:40.027Z,98.07
2022-11-07T06:37:36.375Z,98.18
2022-11-07T06:38:43.385Z,97.97
2022-11-07T06:39:38.994Z,97.92
2022-11-07T06:40:39.632Z,98.03
2022-11-07T06:44:58.460Z,97.21
2022-11-07T06:45:36.192Z,97.00
2022-11-07T06:46:33.274Z,97.00
2022-11-07T06:47:36.274Z,97.11
2022-11-07T06:48:34.467Z,97.11
2022-11-07T06:49:33.868Z,97.31
2022-11-07T06:50:32.788Z,97.21
2022-11-07T06:51:35.222Z,97.31
2022-11-07T06:52:34.095Z,97.52
2022-11-07T06:53:35.190Z,97.66
2022-11-07T06:54:33.195Z,97.97
2022-11-07T06:55:33.593Z,98.18
2022-11-07T06:56:32.497Z,98.28
2022-11-07T06:57:32.607Z,98.28
2022-11-07T06:58:36.812Z,98.18
2022-11-07T06:59:35.300Z,98.49
2022-11-07T07:00:54.754Z,98.58
2022-11-07T07:01:36.865Z,98.58
2022-11-07T07:02:59.209Z,98.38
2022-11-07T07:03:36.387Z,98.28
2022-11-07T07:04:33.888Z,98.18
2022-11-07T07:05:55.700Z,98.18
2022-11-07T07:06:34.043Z,98.28
2022-11-07T07:07:31.299Z,98.28
2022-11-07T07:08:33.587Z,98.18
2022-11-07T07:09:33.259Z,97.97
2022-11-07T07:10:32.710Z,98.07
2022-11-07T07:11:32.854Z,97.92
2022-11-07T07:12:32.372Z,97.82
2022-11-07T07:13:33.951Z,97.82
2022-11-07T07:21:37.701Z,97.16
2022-11-07T07:22:14.351Z,96.96
2022-11-07T07:23:12.791Z,96.66
2022-11-07T07:24:17.189Z,96.75
2022-11-07T07:25:11.714Z,96.86
2022-11-07T07:28:02.281Z,96.86
2022-11-07T07:28:59.939Z,96.96
2022-11-07T07:29:59.281Z,96.86
2022-11-07T07:30:55.848Z,96.86
2022-11-07T07:31:59.374Z,96.96
2022-11-07T07:33:20.682Z,96.86
2022-11-07T07:33:59.319Z,96.86
2022-11-07T07:34:57.927Z,96.75
2022-11-07T07:36:20.723Z,97.06
2022-11-07T07:36:57.254Z,96.96
2022-11-07T07:37:55.917Z,96.96
2022-11-07T07:39:00.388Z,97.16
2022-11-07T07:39:59.719Z,97.27
2022-11-07T07:40:55.510Z,97.16
2022-11-07T07:41:57.033Z,97.27
2022-11-07T07:43:17.532Z,96.81
2022-11-07T07:43:58.166Z,96.51
2022-11-07T07:44:59.028Z,96.41
2022-11-07T07:45:59.681Z,96.81
2022-11-07T07:46:55.747Z,96.61
2022-11-07T07:49:52.581Z,96.67
2022-11-07T07:50:30.766Z,96.15
2022-11-07T07:51:50.642Z,95.85
2022-11-07T07:52:35.187Z,95.19
2022-11-07T07:53:36.382Z,94.98
2022-11-07T07:55:59.389Z,94.89
2022-11-07T07:56:48.163Z,94.78
2022-11-07T07:57:57.140Z,94.33
2022-11-07T07:58:49.457Z,94.23
2022-11-07T07:59:50.699Z,94.02
2022-11-07T08:00:50.204Z,93.31
2022-11-07T08:01:49.868Z,93.57
2022-11-07T08:02:54.471Z,93.47
2022-11-07T08:04:09.897Z,93.77
2022-11-07T08:04:49.436Z,93.67
2022-11-07T08:05:48.993Z,93.88
2022-11-07T08:06:50.788Z,92.86
2022-11-07T08:07:48.643Z,93.37
2022-11-07T08:08:48.776Z,92.61
2022-11-07T08:09:48.310Z,92.81
2022-11-07T08:10:48.537Z,93.06
2022-11-07T08:13:42.855Z,92.96
2022-11-07T08:14:40.302Z,93.06
2022-11-07T08:15:36.057Z,93.77
2022-11-07T08:16:36.929Z,93.57
2022-11-07T08:17:36.772Z,93.47
2022-11-07T08:18:40.067Z,93.16
2022-11-07T08:19:38.703Z,93.16
2022-11-07T08:20:38.456Z,93.16
2022-11-07T08:21:37.329Z,93.06
2022-11-07T08:22:37.247Z,93.16
2022-11-07T08:23:35.602Z,93.06
2022-11-07T08:24:38.525Z,92.96
2022-11-07T08:25:41.206Z,92.96
2022-11-07T08:30:17.723Z,92.00
2022-11-07T08:31:04.929Z,92.61
2022-11-07T08:32:06.189Z,92.50
2022-11-07T08:33:06.252Z,92.20
2022-11-07T08:34:08.790Z,92.61
2022-11-07T08:35:06.604Z,92.26
2022-11-07T08:36:06.115Z,91.85
2022-11-07T08:37:07.726Z,91.55
2022-11-07T08:38:07.840Z,91.96
2022-11-07T08:41:59.793Z,90.75
2022-11-07T08:42:55.175Z,90.14
2022-11-07T08:50:09.371Z,91.42
2022-11-07T08:50:55.437Z,90.60
2022-11-07T08:51:54.292Z,90.09
2022-11-07T08:53:02.221Z,89.48
2022-11-07T08:53:55.371Z,89.89
2022-11-07T08:54:53.212Z,90.30
2022-11-07T08:55:51.613Z,90.91
2022-11-07T08:57:13.313Z,90.20
2022-11-07T08:57:53.539Z,89.48
2022-11-07T08:58:53.235Z,89.28
2022-11-07T08:59:52.131Z,89.69
2022-11-07T09:00:50.956Z,89.48
2022-11-07T09:02:27.874Z,89.89
2022-11-07T09:03:30.883Z,89.59
2022-11-07T09:03:57.552Z,89.59
2022-11-07T09:04:55.031Z,89.89
2022-11-07T09:05:53.558Z,89.18
2022-11-07T09:06:52.188Z,89.99
2022-11-07T09:07:54.431Z,89.64
2022-11-07T09:09:11.541Z,89.54
2022-11-07T09:10:02.794Z,89.34
2022-11-07T09:10:57.016Z,89.03
2022-11-07T09:11:54.150Z,88.39
2022-11-07T09:12:54.165Z,88.39
2022-11-07T09:13:55.627Z,88.18
2022-11-07T09:14:55.415Z,87.87
2022-11-07T09:15:57.567Z,87.98
2022-11-07T09:16:55.835Z,88.28
2022-11-07T09:17:55.956Z,87.81
2022-11-07T09:18:54.978Z,88.22
2022-11-07T09:19:59.138Z,88.53
2022-11-07T09:20:54.564Z,88.57
2022-11-07T09:21:53.516Z,88.98
2022-11-07T09:22:59.562Z,88.87
2022-11-07T09:26:30.267Z,88.87
2022-11-07T09:27:32.791Z,88.77
2022-11-07T09:28:23.723Z,88.93
2022-11-07T09:29:53.585Z,89.14
2022-11-07T09:30:29.983Z,88.22
2022-11-07T09:31:28.691Z,88.63
2022-11-07T09:32:43.828Z,88.59
2022-11-07T09:33:26.229Z,88.79
2022-11-07T09:34:27.051Z,88.69
2022-11-07T09:37:25.157Z,86.82
2022-11-07T09:38:00.765Z,86.27
2022-11-07T09:39:05.340Z,85.76
2022-11-07T09:40:03.682Z,86.68
2022-11-07T09:42:50.731Z,85.01
2022-11-07T09:43:46.342Z,85.21
2022-11-07T09:44:42.188Z,85.47
2022-11-07T09:45:46.682Z,84.56
2022-11-07T09:47:07.653Z,84.97
2022-11-07T09:47:50.803Z,84.26
2022-11-07T09:48:52.354Z,85.17
2022-11-07T09:49:46.025Z,85.72
2022-11-07T09:51:04.703Z,85.31
2022-11-07T09:51:45.550Z,85.82
2022-11-07T09:52:51.083Z,85.25
2022-11-07T09:53:45.610Z,85.86
2022-11-07T09:54:50.005Z,86.57
2022-11-07T09:55:46.139Z,86.88
2022-11-07T09:56:44.841Z,87.29
2022-11-07T09:57:47.232Z,86.57
2022-11-07T09:58:44.876Z,86.77
2022-11-07T09:59:42.973Z,86.88
2022-11-07T10:00:44.510Z,87.14
2022-11-07T10:01:43.327Z,85.52
2022-11-07T10:02:45.791Z,85.38
2022-11-07T10:04:10.348Z,85.38
2022-11-07T10:04:44.547Z,84.77
2022-11-07T10:05:46.190Z,85.38
2022-11-07T10:06:44.101Z,85.27
2022-11-07T10:07:49.486Z,85.17
2022-11-07T10:08:46.540Z,84.97
2022-11-07T10:09:48.525Z,85.78
2022-11-07T10:10:45.579Z,85.58
2022-11-07T10:11:43.872Z,85.38
2022-11-07T10:12:44.477Z,85.17
2022-11-07T10:13:42.820Z,85.38
2022-11-07T10:15:06.270Z,85.11
2022-11-07T10:15:43.684Z,84.80
2022-11-07T10:19:36.098Z,85.96
2022-11-07T10:20:33.084Z,85.66
2022-11-07T10:21:35.749Z,85.76
2022-11-07T10:22:10.327Z,86.37
2022-11-07T10:23:08.007Z,86.31
2022-11-07T10:24:11.771Z,86.61
2022-11-07T10:25:09.245Z,86.71
2022-11-07T10:26:08.946Z,87.12
2022-11-07T10:27:07.874Z,86.57
2022-11-07T10:28:08.591Z,86.37
2022-11-07T10:29:09.380Z,86.02
2022-11-07T10:30:11.947Z,85.72
2022-11-07T10:31:09.548Z,85.68
2022-11-07T10:32:09.539Z,84.87
2022-11-07T10:33:08.507Z,85.07
2022-11-07T10:34:10.818Z,84.66
2022-11-07T10:35:07.832Z,84.66
2022-11-07T10:36:09.391Z,84.36
2022-11-07T10:37:08.483Z,84.56
2022-11-07T10:38:11.044Z,84.46
2022-11-07T10:39:10.194Z,85.24
2022-11-07T10:40:11.931Z,84.72
2022-11-07T10:41:46.605Z,83.71
2022-11-07T10:42:07.946Z,83.40
2022-11-07T10:43:07.618Z,84.32
2022-11-07T10:44:08.777Z,83.40
2022-11-07T10:45:11.199Z,83.00
2022-11-07T10:46:10.055Z,84.01
2022-11-07T10:47:09.043Z,84.83
2022-11-07T10:48:08.868Z,84.83
2022-11-07T10:49:09.976Z,83.81
2022-11-07T10:50:08.024Z,84.72
2022-11-07T10:51:13.415Z,84.52
2022-11-07T10:52:16.431Z,83.91
2022-11-07T10:53:24.328Z,83.71
2022-11-07T10:54:18.060Z,84.56
2022-11-07T10:55:17.730Z,84.56
2022-11-07T10:56:11.605Z,84.56
2022-11-07T10:57:14.678Z,85.07
2022-11-07T10:58:35.002Z,85.38
2022-11-07T10:59:09.501Z,84.46
2022-11-07T11:00:17.608Z,84.50
2022-11-07T11:01:14.567Z,85.31
2022-11-07T11:02:10.862Z,85.72
2022-11-07T11:03:11.849Z,85.41
2022-11-07T11:04:19.942Z,84.91
2022-11-07T11:05:10.330Z,85.21
2022-11-07T11:06:10.737Z,84.09
2022-11-07T11:07:11.022Z,84.50
2022-11-07T11:08:10.347Z,85.21
2022-11-07T11:09:12.823Z,85.25
2022-11-07T11:10:14.949Z,85.15
2022-11-07T11:11:11.881Z,85.52
2022-11-07T11:12:34.342Z,85.72
2022-11-07T11:13:33.407Z,85.15
2022-11-07T11:14:10.885Z,85.05
2022-11-07T11:15:16.864Z,85.15
2022-11-07T11:16:08.674Z,84.64
2022-11-07T11:17:10.151Z,84.44
2022-11-07T11:18:12.820Z,84.95
2022-11-07T11:19:11.542Z,84.84
2022-11-07T11:20:13.090Z,85.35
2022-11-07T11:21:13.726Z,84.34
2022-11-07T11:22:16.781Z,84.23
2022-11-07T11:27:23.302Z,84.70
2022-11-07T11:28:27.549Z,84.09
2022-11-07T11:29:17.619Z,84.20
2022-11-07T11:30:12.766Z,84.30
2022-11-07T11:31:13.748Z,84.70
2022-11-07T11:32:38.203Z,84.30
2022-11-07T11:33:10.857Z,84.64
2022-11-07T11:34:17.349Z,85.15
2022-11-07T11:35:30.552Z,84.64
2022-11-07T11:36:11.854Z,84.84
2022-11-07T11:37:16.946Z,84.84
2022-11-07T11:38:13.153Z,84.74
2022-11-07T11:39:11.782Z,85.25
2022-11-07T11:40:09.593Z,85.46
2022-11-07T11:41:18.257Z,85.25
2022-11-07T11:42:13.883Z,86.07
2022-11-07T11:43:11.455Z,85.60
2022-11-07T11:44:10.270Z,85.96
2022-11-07T11:45:11.390Z,86.68
2022-11-07T11:46:10.655Z,85.86
2022-11-07T11:47:12.993Z,86.27
2022-11-07T11:48:10.681Z,85.86
2022-11-07T11:49:09.681Z,85.96
2022-11-07T11:50:13.098Z,85.96
2022-11-07T11:51:16.227Z,86.63
2022-11-07T11:52:12.185Z,85.52
2022-11-07T11:53:18.041Z,85.82
2022-11-07T11:54:12.453Z,85.52
2022-11-07T11:55:11.570Z,85.72
2022-11-07T11:56:09.870Z,86.33
2022-11-07T11:57:10.815Z,85.82
2022-11-07T11:58:18.160Z,86.43
2022-11-07T11:59:13.382Z,86.13
2022-11-07T12:00:10.685Z,86.43
2022-11-07T12:01:10.021Z,86.02
2022-11-07T12:02:10.740Z,85.31
2022-11-07T12:03:12.203Z,85.92
2022-11-07T12:04:09.240Z,86.53
2022-11-07T12:05:08.983Z,85.41
2022-11-07T12:06:15.890Z,85.82
2022-11-07T12:07:09.779Z,85.41
2022-11-07T12:08:08.843Z,85.31
2022-11-07T12:09:10.523Z,86.13
2022-11-07T12:10:12.010Z,85.62
2022-11-07T12:11:13.256Z,85.72
2022-11-07T12:12:08.945Z,85.58
2022-11-07T12:13:12.319Z,84.97
2022-11-07T12:14:11.435Z,84.66
2022-11-07T12:15:10.413Z,84.05
2022-11-07T12:16:10.900Z,84.56
2022-11-07T12:17:08.778Z,85.17
2022-11-07T12:18:12.012Z,85.07
2022-11-07T12:19:13.034Z,84.77
2022-11-07T12:20:08.859Z,84.87
2022-11-07T12:21:12.254Z,85.07
2022-11-07T12:22:11.255Z,85.84
2022-11-07T12:23:08.828Z,84.93
2022-11-07T12:24:13.969Z,84.32
2022-11-07T12:25:10.553Z,83.71
2022-11-07T12:26:30.688Z,84.12
2022-11-07T12:27:11.061Z,83.81
2022-11-07T12:28:11.205Z,83.81
2022-11-07T12:29:09.435Z,84.42
2022-11-07T12:30:11.146Z,83.61
2022-11-07T12:31:10.019Z,84.52
2022-11-07T12:32:08.491Z,85.13
2022-11-07T12:33:09.618Z,83.91
2022-11-07T12:34:10.185Z,84.01
2022-11-07T12:35:10.141Z,84.52
2022-11-07T12:36:10.969Z,85.03
2022-11-07T12:37:17.650Z,85.38
2022-11-07T12:38:09.365Z,84.97
2022-11-07T12:39:08.524Z,84.97
2022-11-07T12:40:08.655Z,85.78
2022-11-07T12:41:18.353Z,85.78
2022-11-07T12:42:12.049Z,86.59
2022-11-07T12:43:15.856Z,86.29
2022-11-07T12:44:09.062Z,86.33
2022-11-07T12:45:11.659Z,86.22
2022-11-07T12:46:16.806Z,86.43
2022-11-07T12:47:24.813Z,87.51
2022-11-07T12:48:21.882Z,86.29
2022-11-07T12:49:20.150Z,87.10
2022-11-07T12:50:15.444Z,86.08
2022-11-07T12:51:23.505Z,85.47
2022-11-07T12:52:23.487Z,86.29
2022-11-07T12:55:25.565Z,85.98
2022-11-07T12:56:26.778Z,86.39
2022-11-07T12:57:30.420Z,86.29
2022-11-07T12:58:15.376Z,86.08
2022-11-07T12:59:14.796Z,86.29
2022-11-07T13:00:20.522Z,85.98
2022-11-07T13:01:42.557Z,86.53
2022-11-07T13:07:55.832Z,85.98
2022-11-07T13:08:28.673Z,85.88
2022-11-07T13:09:25.260Z,85.38
2022-11-07T13:10:23.966Z,85.84
2022-11-07T13:11:25.326Z,85.24
2022-11-07T13:12:24.434Z,84.93
2022-11-07T13:13:26.061Z,84.93
2022-11-07T13:14:24.405Z,85.24
2022-11-07T13:15:23.131Z,85.03
2022-11-07T13:16:25.709Z,84.42
2022-11-07T13:17:26.459Z,84.83
2022-11-07T13:18:25.240Z,85.13
2022-11-07T13:19:31.311Z,84.72
2022-11-07T13:20:27.815Z,85.53
2022-11-07T13:21:26.609Z,84.83
2022-11-07T13:22:31.950Z,84.22
2022-11-07T13:23:24.269Z,85.03
2022-11-07T13:24:23.193Z,85.13
2022-11-07T13:25:24.119Z,84.42
2022-11-07T13:26:45.666Z,84.12
2022-11-07T13:27:24.589Z,84.52
2022-11-07T13:28:23.169Z,84.93
2022-11-07T13:29:22.831Z,84.42
2022-11-07T13:30:30.224Z,84.52
2022-11-07T13:31:27.759Z,84.93
2022-11-07T13:32:23.346Z,84.83
2022-11-07T13:33:22.733Z,85.03
2022-11-07T13:34:22.270Z,84.72
2022-11-07T13:35:23.500Z,84.69
2022-11-07T13:36:22.465Z,84.28
2022-11-07T13:37:22.299Z,84.52
2022-11-07T13:38:23.727Z,84.63
2022-11-07T13:39:22.450Z,84.32
2022-11-07T13:40:24.491Z,84.83
2022-11-07T13:41:27.146Z,84.63
2022-11-07T13:42:22.965Z,85.24
2022-11-07T13:43:22.479Z,84.93
2022-11-07T13:44:23.062Z,85.64
2022-11-07T13:45:23.015Z,85.78
2022-11-07T13:46:24.824Z,86.49
2022-11-07T13:47:22.633Z,86.90
2022-11-07T13:48:23.602Z,87.51
2022-11-07T13:49:23.484Z,87.81
2022-11-07T13:50:22.180Z,87.92
2022-11-07T13:51:22.497Z,88.26
2022-11-07T13:52:22.966Z,88.26
2022-11-07T13:53:22.585Z,88.97
2022-11-07T13:54:22.514Z,90.49
2022-11-07T13:55:22.119Z,91.75
2022-11-07T13:56:23.040Z,92.77
2022-11-07T13:57:22.852Z,93.83
2022-11-07T13:58:22.399Z,94.24
2022-11-07T13:59:24.273Z,94.69
2022-11-07T14:00:22.479Z,95.20
2022-11-07T14:01:22.364Z,95.50
2022-11-07T14:02:22.450Z,96.06
2022-11-07T14:03:22.162Z,96.36
2022-11-07T14:04:22.222Z,96.77
2022-11-07T14:05:22.695Z,96.56
2022-11-07T14:06:23.729Z,96.77
2022-11-07T14:07:25.893Z,97.07
2022-11-07T14:08:23.231Z,96.87
2022-11-07T14:09:22.601Z,96.77
2022-11-07T14:10:22.373Z,96.26
2022-11-07T14:11:21.933Z,96.46
2022-11-07T14:12:21.752Z,96.77
2022-11-07T14:13:22.105Z,96.67
2022-11-07T14:14:22.934Z,96.67
2022-11-07T14:15:22.369Z,96.46
2022-11-07T14:16:21.755Z,96.26
2022-11-07T14:17:22.165Z,96.36
2022-11-07T14:18:22.176Z,96.56
2022-11-07T14:19:22.175Z,96.77
2022-11-07T14:20:22.401Z,96.67
2022-11-07T14:21:23.221Z,96.77
2022-11-07T14:22:23.366Z,96.67